Bookmark and Share
Track history (hours):
 

Wind Runner

More information available from US FCC via Universal Licensing System and Coast Guard Vessel Documentation Center.

Last reported at 2013-Oct-10 13:21 UTC. Time now 2014-Apr-23 06:48 UTC.
Position N 41°24' W 072°25'.
Warning: this ship's position is months out of date.

Length 14 m.

Type: Sailing vessel. MMSI: 367127660.

NotesDate/timePositionNaut miles runAvg speedWind from/ knotsBaromVisibWave heightAir tempDewpointWater temp
2013-Oct-10 13:21N 41°24' W 072°25'3 3.3
2013-Oct-10 12:27N 41°21' W 072°23'0 0.0
2013-Oct-10 11:33N 41°21' W 072°23'0 0.0
2013-Oct-10 10:33N 41°21' W 072°23'0 0.0
2013-Oct-10 09:33N 41°21' W 072°23'0 0.0
2013-Oct-10 08:33N 41°21' W 072°23'0 0.0
2013-Oct-10 07:33N 41°21' W 072°23'0 0.0
2013-Oct-10 06:33N 41°21' W 072°23'0 0.0
2013-Oct-10 05:33N 41°21' W 072°23'0 0.0
2013-Oct-10 04:33N 41°21' W 072°23'0 0.0
2013-Oct-10 03:33N 41°21' W 072°23'0 0.0
2013-Oct-10 02:33N 41°21' W 072°23'0 0.0
2013-Oct-10 01:33N 41°21' W 072°23'0 0.0
2013-Oct-10 00:33N 41°21' W 072°23'0 0.0
2013-Oct-09 23:33N 41°21' W 072°23'0 0.0
2013-Oct-09 22:33N 41°21' W 072°23'0 0.0
2013-Oct-09 21:33N 41°21' W 072°23'0 0.0
2013-Oct-09 20:33N 41°21' W 072°23'0 0.0
2013-Oct-09 19:33N 41°21' W 072°23'0 0.0
2013-Oct-09 18:31N 41°21' W 072°23'3 3.3
2013-Oct-09 17:33N 41°18' W 072°21'6 6.1
2013-Oct-09 16:33N 41°15' W 072°15'5 5.4
2013-Oct-09 15:33N 41°15' W 072°07'6 5.6
2013-Oct-09 14:33N 41°18' W 072°01'6 6.1
2013-Oct-09 13:33N 41°20' W 071°53'3 2.9
2013-Oct-09 12:28N 41°22' W 071°50'0 0.0
2013-Oct-09 11:31N 41°22' W 071°50'0 0.0
2013-Oct-09 10:31N 41°22' W 071°50'0 0.0
2013-Oct-09 09:28N 41°22' W 071°50'0 0.0
2013-Oct-09 08:31N 41°22' W 071°50'0 0.0
2013-Oct-09 07:31N 41°22' W 071°50'0 0.0
2013-Oct-09 06:31N 41°22' W 071°50'0 0.0
2013-Oct-09 05:31N 41°22' W 071°50'0 0.0
2013-Oct-09 04:31N 41°22' W 071°50'0 0.0
2013-Oct-09 03:31N 41°22' W 071°50'0 0.0
2013-Oct-09 02:31N 41°22' W 071°50'0 0.0
2013-Oct-09 01:31N 41°22' W 071°50'0 0.0
2013-Oct-09 00:32N 41°22' W 071°50'0 0.0
2013-Oct-08 23:32N 41°22' W 071°50'0 0.0
2013-Oct-08 22:32N 41°22' W 071°50'0 0.0
2013-Oct-08 21:32N 41°22' W 071°50'0 0.0
2013-Oct-08 20:32N 41°22' W 071°50'0 0.0
2013-Oct-08 19:32N 41°22' W 071°50'0 0.0
2013-Oct-08 18:32N 41°22' W 071°50'0 0.0
2013-Oct-08 17:32N 41°22' W 071°50'0 0.0
2013-Oct-08 16:29N 41°22' W 071°50'0 0.0
2013-Oct-08 15:32N 41°22' W 071°50'0 0.0
2013-Oct-08 14:32N 41°22' W 071°50'0 0.0
2013-Oct-08 13:32N 41°22' W 071°50'0 0.0
2013-Oct-08 12:32N 41°22' W 071°50'0 0.0
2013-Oct-08 11:32N 41°22' W 071°50'0 0.0
2013-Oct-08 10:32N 41°22' W 071°50'0 0.0
2013-Oct-08 09:32N 41°22' W 071°50'0 0.0
2013-Oct-08 08:32N 41°22' W 071°50'0 0.0
2013-Oct-08 07:29N 41°22' W 071°50'0 0.0
2013-Oct-08 06:32N 41°22' W 071°50'0 0.0
2013-Oct-08 05:32N 41°22' W 071°50'0 0.0
2013-Oct-08 04:32N 41°22' W 071°50'0 0.0
2013-Oct-08 03:32N 41°22' W 071°50'0 0.0
2013-Oct-08 02:29N 41°22' W 071°50'0 0.0
2013-Oct-08 01:32N 41°22' W 071°50'0 0.0
2013-Oct-08 00:32N 41°22' W 071°50'0 0.0
2013-Oct-07 23:32N 41°22' W 071°50'0 0.0
2013-Oct-07 22:32N 41°22' W 071°50'0 0.0
2013-Oct-07 21:32N 41°22' W 071°50'0 0.0
2013-Oct-07 20:32N 41°22' W 071°50'0 0.0
2013-Oct-07 19:26N 41°22' W 071°50'0 0.0
2013-Oct-07 18:32N 41°22' W 071°50'0 0.0
2013-Oct-07 17:20N 41°22' W 071°50'0 0.0
2013-Oct-07 16:32N 41°22' W 071°50'0 0.0
2013-Oct-07 15:32N 41°22' W 071°50'0 0.0
2013-Oct-07 14:32N 41°22' W 071°50'0 0.0
2013-Oct-07 13:32N 41°22' W 071°50'0 0.0
2013-Oct-07 12:20N 41°22' W 071°50'0 0.0
2013-Oct-07 11:32N 41°22' W 071°50'0 0.0
2013-Oct-07 10:11N 41°22' W 071°50'0 0.0
2013-Oct-07 09:32N 41°22' W 071°50'0 0.0
2013-Oct-07 08:32N 41°22' W 071°50'0 0.0
2013-Oct-07 07:32N 41°22' W 071°50'0 0.0
2013-Oct-07 06:32N 41°22' W 071°50'0 0.0
2013-Oct-07 05:32N 41°22' W 071°50'0 0.0
2013-Oct-07 04:26N 41°22' W 071°50'0 0.0
2013-Oct-07 03:32N 41°22' W 071°50'0 0.0
2013-Oct-07 02:29N 41°22' W 071°50'0 0.0
2013-Oct-07 01:32N 41°22' W 071°50'0 0.0
2013-Oct-07 00:32N 41°22' W 071°50'0 0.0
2013-Oct-06 23:32N 41°22' W 071°50'0 0.0
2013-Oct-06 22:32N 41°22' W 071°50'0 0.0
2013-Oct-06 21:32N 41°22' W 071°50'0 0.0
2013-Oct-06 20:32N 41°22' W 071°50'0 0.0
2013-Oct-06 19:32N 41°22' W 071°50'0 0.0
2013-Oct-06 18:32N 41°22' W 071°50'0 0.0
2013-Oct-06 17:32N 41°22' W 071°50'0 0.0
2013-Oct-06 16:26N 41°22' W 071°50'0 0.0
2013-Oct-06 15:32N 41°22' W 071°50'0 0.0
2013-Oct-06 14:32N 41°22' W 071°50'0 0.0
2013-Oct-06 13:26N 41°22' W 071°50'0 0.0
2013-Oct-06 12:32N 41°22' W 071°50'0 0.0
2013-Oct-06 11:32N 41°22' W 071°50'0 0.0
2013-Oct-06 10:32N 41°22' W 071°50'0 0.0
2013-Oct-06 09:32N 41°22' W 071°50'0 0.0
2013-Oct-06 08:32N 41°22' W 071°50'0 0.0
2013-Oct-06 07:29N 41°22' W 071°50'0 0.0
2013-Oct-06 06:32N 41°22' W 071°50'0 0.0
2013-Oct-06 05:32N 41°22' W 071°50'0 0.0
2013-Oct-06 04:32N 41°22' W 071°50'0 0.0
2013-Oct-06 03:32N 41°22' W 071°50'0 0.0
2013-Oct-06 02:26N 41°22' W 071°50'0 0.0
2013-Oct-06 01:32N 41°22' W 071°50'0 0.0
2013-Oct-06 00:32N 41°22' W 071°50'0 0.0
2013-Oct-05 23:32N 41°22' W 071°50'0 0.0
2013-Oct-05 22:32N 41°22' W 071°50'0 0.0
2013-Oct-05 21:32N 41°22' W 071°50'0 0.0
2013-Oct-05 20:32N 41°22' W 071°50'0 0.0
2013-Oct-05 19:32N 41°22' W 071°50'0 0.0
2013-Oct-05 18:32N 41°22' W 071°50'0 0.0
2013-Oct-05 17:32N 41°22' W 071°50'0 0.0
2013-Oct-05 16:32N 41°22' W 071°50'0 0.0
2013-Oct-05 15:32N 41°22' W 071°50'0 0.0
2013-Oct-05 14:32N 41°22' W 071°50'0 0.0
2013-Oct-05 13:32N 41°22' W 071°50'0 0.0
2013-Oct-05 12:32N 41°22' W 071°50'0 0.0
2013-Oct-05 11:32N 41°22' W 071°50'0 0.0
2013-Oct-05 10:32N 41°22' W 071°50'0 0.0
2013-Oct-05 09:29N 41°22' W 071°50'0 0.0
2013-Oct-05 08:32N 41°22' W 071°50'0 0.0
2013-Oct-05 07:32N 41°22' W 071°50'0 0.0
2013-Oct-05 06:32N 41°22' W 071°50'0 0.0
2013-Oct-05 05:32N 41°22' W 071°50'0 0.0
2013-Oct-05 04:32N 41°22' W 071°50'0 0.0
2013-Oct-05 03:26N 41°22' W 071°50'0 0.0
2013-Oct-05 02:32N 41°22' W 071°50'0 0.0
2013-Oct-05 01:32N 41°22' W 071°50'0 0.0
2013-Oct-05 00:32N 41°22' W 071°50'0 0.0
2013-Oct-04 23:32N 41°22' W 071°50'0 0.0
2013-Oct-04 22:32N 41°22' W 071°50'0 0.0
2013-Oct-04 21:32N 41°22' W 071°50'0 0.0
2013-Oct-04 20:32N 41°22' W 071°50'0 0.0
2013-Oct-04 19:32N 41°22' W 071°50'0 0.0
2013-Oct-04 18:32N 41°22' W 071°50'0 0.0
2013-Oct-04 17:29N 41°22' W 071°50'0 0.0
2013-Oct-04 16:33N 41°22' W 071°50'0 0.0
2013-Oct-04 15:32N 41°22' W 071°50'0 0.0
2013-Oct-04 14:29N 41°22' W 071°50'0 0.0
2013-Oct-04 13:32N 41°22' W 071°50'0 0.0
2013-Oct-04 12:32N 41°22' W 071°50'0 0.0
2013-Oct-04 11:29N 41°22' W 071°50'0 0.0
2013-Oct-04 10:26N 41°22' W 071°50'0 0.0
2013-Oct-04 09:33N 41°22' W 071°50'0 0.0
2013-Oct-04 08:32N 41°22' W 071°50'0 0.0
2013-Oct-04 07:29N 41°22' W 071°50'0 0.0
2013-Oct-04 06:33N 41°22' W 071°50'0 0.0
2013-Oct-04 05:33N 41°22' W 071°50'0 0.0
2013-Oct-04 04:29N 41°22' W 071°50'0 0.0
2013-Oct-04 03:32N 41°22' W 071°50'0 0.0
2013-Oct-04 02:32N 41°22' W 071°50'0 0.0
2013-Oct-04 01:32N 41°22' W 071°50'0 0.0
2013-Oct-04 00:32N 41°22' W 071°50'0 0.0
2013-Oct-03 23:32N 41°22' W 071°50'0 0.0
2013-Oct-03 22:29N 41°22' W 071°50'0 0.0
2013-Oct-03 21:32N 41°22' W 071°50'0 0.0
2013-Oct-03 20:32N 41°22' W 071°50'0 0.0
2013-Oct-03 19:33N 41°22' W 071°50'0 0.0
2013-Oct-03 18:27N 41°22' W 071°50'0 0.0
2013-Oct-03 17:32N 41°22' W 071°50'0 0.0
2013-Oct-03 16:32N 41°22' W 071°50'0 0.0
2013-Oct-03 15:32N 41°22' W 071°50'0 0.0
2013-Oct-03 14:27N 41°22' W 071°50'0 0.0
2013-Oct-03 13:32N 41°22' W 071°50'0 0.0
2013-Oct-03 12:18N 41°22' W 071°50'0 0.0
2013-Oct-03 11:30N 41°22' W 071°50'0 0.0
2013-Oct-03 10:33N 41°22' W 071°50'0 0.0
2013-Oct-03 09:33N 41°22' W 071°50'0 0.0
2013-Oct-03 08:33N 41°22' W 071°50'0 0.0
2013-Oct-03 07:33N 41°22' W 071°50'0 0.0
2013-Oct-03 06:33N 41°22' W 071°50'0 0.0
2013-Oct-03 05:33N 41°22' W 071°50'0 0.0
2013-Oct-03 04:33N 41°22' W 071°50'0 0.0
2013-Oct-03 03:33N 41°22' W 071°50'0 0.0
2013-Oct-03 02:33N 41°22' W 071°50'0 0.0
2013-Oct-03 01:33N 41°22' W 071°50'0 0.0
2013-Oct-03 00:33N 41°22' W 071°50'0 0.0
2013-Oct-02 23:33N 41°22' W 071°50'0 0.0
2013-Oct-02 22:33N 41°22' W 071°50'0 0.0
2013-Oct-02 21:30N 41°22' W 071°50'0 0.0
2013-Oct-02 20:33N 41°22' W 071°50'0 0.0
2013-Oct-02 18:33N 41°22' W 071°50'0 0.0
2013-Oct-02 17:27N 41°22' W 071°50'0 0.0
2013-Oct-02 16:18N 41°22' W 071°50'0 0.0
2013-Oct-02 15:33N 41°22' W 071°50'0 0.0
2013-Oct-02 14:33N 41°22' W 071°50'0 0.0
2013-Oct-02 13:30N 41°22' W 071°50'0 0.0
2013-Oct-02 12:27N 41°22' W 071°50'0 0.0
2013-Oct-02 11:27N 41°22' W 071°50'0 0.0
2013-Oct-02 10:33N 41°22' W 071°50'0 0.0
2013-Oct-02 09:33N 41°22' W 071°50'0 0.0
2013-Oct-02 08:33N 41°22' W 071°50'0 0.0
2013-Oct-02 07:33N 41°22' W 071°50'0 0.0
2013-Oct-02 06:33N 41°22' W 071°50'0 0.0
2013-Oct-02 05:33N 41°22' W 071°50'0 0.0
2013-Oct-02 04:33N 41°22' W 071°50'0 0.0
2013-Oct-02 03:33N 41°22' W 071°50'0 0.0
2013-Oct-02 02:33N 41°22' W 071°50'0 0.0
2013-Oct-02 01:33N 41°22' W 071°50'0 0.0
2013-Oct-02 00:33N 41°22' W 071°50'0 0.0
2013-Oct-01 23:33N 41°22' W 071°50'0 0.0
2013-Oct-01 22:33N 41°22' W 071°50'0 0.0
2013-Oct-01 21:33N 41°22' W 071°50'0 0.0
2013-Oct-01 20:27N 41°22' W 071°50'0 0.0
2013-Oct-01 19:33N 41°22' W 071°50'0 0.0
2013-Oct-01 18:33N 41°22' W 071°50'0 0.0
2013-Oct-01 17:33N 41°22' W 071°50'0 0.0
2013-Oct-01 16:24N 41°22' W 071°50'0 0.0
2013-Oct-01 15:33N 41°22' W 071°50'0 0.0
2013-Oct-01 14:33N 41°22' W 071°50'0 0.0
2013-Oct-01 13:21N 41°22' W 071°50'0 0.0
2013-Oct-01 12:30N 41°22' W 071°50'0 0.0
2013-Oct-01 11:33N 41°22' W 071°50'0 0.0
2013-Oct-01 10:33N 41°22' W 071°50'0 0.0
2013-Oct-01 09:30N 41°22' W 071°50'0 0.0
2013-Oct-01 08:33N 41°22' W 071°50'0 0.0
2013-Oct-01 07:33N 41°22' W 071°50'0 0.0
2013-Oct-01 06:27N 41°22' W 071°50'0 0.0
2013-Oct-01 05:33N 41°22' W 071°50'0 0.0
2013-Oct-01 04:33N 41°22' W 071°50'0 0.0
2013-Oct-01 03:33N 41°22' W 071°50'0 0.0
2013-Oct-01 02:33N 41°22' W 071°50'0 0.0
2013-Oct-01 01:27N 41°22' W 071°50'0 0.0
2013-Oct-01 00:27N 41°22' W 071°50'0 0.0
2013-Sep-30 23:33N 41°22' W 071°50'0 0.0
2013-Sep-30 22:33N 41°22' W 071°50'0 0.0
2013-Sep-30 21:27N 41°22' W 071°50'0 0.0
2013-Sep-30 20:27N 41°22' W 071°50'0 0.0
2013-Sep-30 19:33N 41°22' W 071°50'0 0.0
2013-Sep-30 18:33N 41°22' W 071°50'0 0.0
2013-Sep-30 17:33N 41°22' W 071°50'0 0.0
2013-Sep-30 16:33N 41°22' W 071°50'0 0.0
2013-Sep-30 15:33N 41°22' W 071°50'0 0.0
2013-Sep-30 14:33N 41°22' W 071°50'0 0.0
2013-Sep-30 13:33N 41°22' W 071°50'  

Dump ship's entire track history

sailing weather and tide predictions

Wind Runner — WDD3233 — position and weather